Terminal Aerodrome Forecast
Issued by NWS

Home | Current Version | Previous Version | Text Only | Print | Product List | Glossary On
Versions: 1 2 3 4 5 6 7 8 9 10 11 12 13 14 15 16 17 18 19 20 21 22 23 24 25 26
675
FTUS43 KLOT 070907 AAA
TAFORD
TAF AMD
KORD 070907Z 0709/0812 20010KT P6SM OVC120
     FM071200 22012G20KT P6SM OVC100
     FM071500 24015G22KT P6SM BKN180
     FM072300 25010KT P6SM BKN040
      TEMPO 0808/0812 1SM -SHSN BKN030=

USA.gov is the U.S. government's official web portal to all federal, state and local government web resources and services.